首页
METAR-TAF:

METAR-TAF

机场 :

克里斯蒂亚诺·罗纳尔多机场

丰沙尔, 馬德拉群岛, 葡萄牙

纬度: 32-41-52N, 经度: 016-46-28W, 海拔: 59米

当前天气观测

该预报发布于18分钟前的07:00 UTC
风速7节,风向北转东北
温度 15°C
湿度 67%
气压 1023 hPa
能见度10公里或以上
散云层高于1500英尺
多云层高于3000英尺

METAR: LPMA 240700Z 02007KT 9999 SCT015 BKN030 15/09 Q1023

时间: 07:18 (07:18 UTC)

预报

该预报发布于2小时和18分钟前的05:00 UTC
预报有效从24日的 06点(UTC)到 25日的 06点(UTC)
风速15节,风向北转东北
能见度10公里或以上
散云层高于1500英尺
散云层高于3000英尺
几率 30% :
短暂存在
从 24日的 06点(UTC)到 24日的 24点(UTC)
风速20节,风向北转东北,有时为30节阵风
能見度: 8000
多云层高于1500英尺
阵雨

TAF: LPMA 240500Z 2406/2506 02015KT 9999 SCT015 SCT030 PROB30 TEMPO 2406/2424 03020G30KT 8000 SHRA BKN015

超过4000个机场的气象观测和天气预报(METAR&TAF报告)。

可查询的气象台以黄色和红色小点在地图上表示。

将鼠标移到小点上方,可查看气象台名称。

然后点击查看天气观测和预报。

如需切换地图:点击带黑十字的绿色按钮放大地图;点击带横线的绿色按钮缩小地图;或者点击绿色箭头查看邻近地区的地图。


METAR-TAF: